sensor_id;sensor_type;location;lat;lon;timestamp;P1;durP1;ratioP1;P2;durP2;ratioP2
67737;SDS011;54534;43.612;1.572;2023-04-05T00:00:09;2.53;;;1.73;;
67737;SDS011;54534;43.612;1.572;2023-04-05T00:02:35;3.20;;;1.97;;
67737;SDS011;54534;43.612;1.572;2023-04-05T00:05:01;5.03;;;2.03;;
67737;SDS011;54534;43.612;1.572;2023-04-05T00:07:29;2.17;;;1.33;;
67737;SDS011;54534;43.612;1.572;2023-04-05T00:09:58;2.57;;;1.90;;
67737;SDS011;54534;43.612;1.572;2023-04-05T00:12:23;3.37;;;1.93;;
67737;SDS011;54534;43.612;1.572;2023-04-05T00:14:49;3.60;;;1.67;;
67737;SDS011;54534;43.612;1.572;2023-04-05T00:17:14;3.43;;;1.80;;
67737;SDS011;54534;43.612;1.572;2023-04-05T00:19:41;3.33;;;1.60;;
67737;SDS011;54534;43.612;1.572;2023-04-05T00:22:09;3.90;;;1.77;;
67737;SDS011;54534;43.612;1.572;2023-04-05T00:24:35;3.77;;;1.93;;
67737;SDS011;54534;43.612;1.572;2023-04-05T00:27:02;5.10;;;1.80;;
67737;SDS011;54534;43.612;1.572;2023-04-05T00:29:28;2.03;;;1.60;;
67737;SDS011;54534;43.612;1.572;2023-04-05T00:31:54;5.30;;;2.03;;
67737;SDS011;54534;43.612;1.572;2023-04-05T00:34:20;4.13;;;1.80;;
67737;SDS011;54534;43.612;1.572;2023-04-05T00:36:45;3.40;;;1.53;;
67737;SDS011;54534;43.612;1.572;2023-04-05T00:39:11;3.47;;;1.63;;
67737;SDS011;54534;43.612;1.572;2023-04-05T00:41:36;2.83;;;1.67;;
67737;SDS011;54534;43.612;1.572;2023-04-05T00:44:02;3.10;;;1.80;;
67737;SDS011;54534;43.612;1.572;2023-04-05T00:46:27;2.73;;;1.70;;
67737;SDS011;54534;43.612;1.572;2023-04-05T00:48:53;2.17;;;1.57;;
67737;SDS011;54534;43.612;1.572;2023-04-05T00:51:19;3.63;;;2.13;;
67737;SDS011;54534;43.612;1.572;2023-04-05T00:53:44;2.67;;;1.43;;
67737;SDS011;54534;43.612;1.572;2023-04-05T00:56:12;2.33;;;1.60;;
67737;SDS011;54534;43.612;1.572;2023-04-05T00:58:39;2.63;;;1.70;;
67737;SDS011;54534;43.612;1.572;2023-04-05T01:01:08;2.30;;;1.50;;
67737;SDS011;54534;43.612;1.572;2023-04-05T01:03:38;2.63;;;1.50;;
67737;SDS011;54534;43.612;1.572;2023-04-05T01:09:15;1.70;;;1.47;;
67737;SDS011;54534;43.612;1.572;2023-04-05T01:11:44;2.17;;;1.37;;
67737;SDS011;54534;43.612;1.572;2023-04-05T01:14:12;2.20;;;1.50;;
67737;SDS011;54534;43.612;1.572;2023-04-05T01:16:38;2.70;;;1.77;;
67737;SDS011;54534;43.612;1.572;2023-04-05T01:19:03;2.93;;;1.50;;
67737;SDS011;54534;43.612;1.572;2023-04-05T01:30:10;2.17;;;1.57;;
67737;SDS011;54534;43.612;1.572;2023-04-05T01:33:24;3.23;;;1.90;;
67737;SDS011;54534;43.612;1.572;2023-04-05T01:35:39;3.00;;;1.80;;
67737;SDS011;54534;43.612;1.572;2023-04-05T01:38:23;1.93;;;1.73;;
67737;SDS011;54534;43.612;1.572;2023-04-05T01:43:18;1.60;;;1.50;;
67737;SDS011;54534;43.612;1.572;2023-04-05T01:45:44;1.50;;;1.40;;
67737;SDS011;54534;43.612;1.572;2023-04-05T01:48:10;2.87;;;1.70;;
67737;SDS011;54534;43.612;1.572;2023-04-05T01:50:37;1.43;;;1.27;;
67737;SDS011;54534;43.612;1.572;2023-04-05T01:53:02;2.40;;;1.50;;
67737;SDS011;54534;43.612;1.572;2023-04-05T01:55:28;1.37;;;1.27;;
67737;SDS011;54534;43.612;1.572;2023-04-05T01:57:54;4.30;;;1.73;;
67737;SDS011;54534;43.612;1.572;2023-04-05T02:00:20;1.50;;;1.30;;
67737;SDS011;54534;43.612;1.572;2023-04-05T02:02:46;1.53;;;1.33;;
67737;SDS011;54534;43.612;1.572;2023-04-05T02:05:12;1.47;;;1.37;;
67737;SDS011;54534;43.612;1.572;2023-04-05T02:07:37;2.27;;;1.50;;
67737;SDS011;54534;43.612;1.572;2023-04-05T02:10:03;1.63;;;1.30;;
67737;SDS011;54534;43.612;1.572;2023-04-05T02:12:28;2.23;;;1.60;;
67737;SDS011;54534;43.612;1.572;2023-04-05T02:14:54;2.03;;;1.50;;
67737;SDS011;54534;43.612;1.572;2023-04-05T02:17:19;1.50;;;1.30;;
67737;SDS011;54534;43.612;1.572;2023-04-05T02:19:49;1.38;;;1.25;;
67737;SDS011;54534;43.612;1.572;2023-04-05T02:22:17;1.80;;;1.70;;
67737;SDS011;54534;43.612;1.572;2023-04-05T02:24:43;1.70;;;1.50;;
67737;SDS011;54534;43.612;1.572;2023-04-05T02:27:08;1.77;;;1.57;;
67737;SDS011;54534;43.612;1.572;2023-04-05T02:29:34;2.43;;;1.43;;
67737;SDS011;54534;43.612;1.572;2023-04-05T02:32:00;2.37;;;1.40;;
67737;SDS011;54534;43.612;1.572;2023-04-05T02:34:25;2.03;;;1.60;;
67737;SDS011;54534;43.612;1.572;2023-04-05T02:36:51;1.83;;;1.67;;
67737;SDS011;54534;43.612;1.572;2023-04-05T02:39:17;2.00;;;1.67;;
67737;SDS011;54534;43.612;1.572;2023-04-05T02:41:42;1.80;;;1.53;;
67737;SDS011;54534;43.612;1.572;2023-04-05T02:44:08;2.90;;;1.37;;
67737;SDS011;54534;43.612;1.572;2023-04-05T02:46:33;1.77;;;1.43;;
67737;SDS011;54534;43.612;1.572;2023-04-05T02:48:59;2.40;;;1.43;;
67737;SDS011;54534;43.612;1.572;2023-04-05T02:51:24;1.37;;;1.10;;
67737;SDS011;54534;43.612;1.572;2023-04-05T02:53:51;2.57;;;1.40;;
67737;SDS011;54534;43.612;1.572;2023-04-05T02:56:17;3.33;;;1.60;;
67737;SDS011;54534;43.612;1.572;2023-04-05T02:58:43;2.43;;;1.70;;
67737;SDS011;54534;43.612;1.572;2023-04-05T03:01:08;5.33;;;1.70;;
67737;SDS011;54534;43.612;1.572;2023-04-05T03:03:34;3.37;;;1.40;;
67737;SDS011;54534;43.612;1.572;2023-04-05T03:06:01;1.50;;;1.40;;
67737;SDS011;54534;43.612;1.572;2023-04-05T03:08:34;2.20;;;1.17;;
67737;SDS011;54534;43.612;1.572;2023-04-05T03:11:08;4.80;;;1.60;;
67737;SDS011;54534;43.612;1.572;2023-04-05T03:13:34;7.73;;;1.50;;
67737;SDS011;54534;43.612;1.572;2023-04-05T03:16:04;2.07;;;1.20;;
67737;SDS011;54534;43.612;1.572;2023-04-05T03:18:29;2.03;;;1.50;;
67737;SDS011;54534;43.612;1.572;2023-04-05T03:20:55;1.23;;;1.10;;
67737;SDS011;54534;43.612;1.572;2023-04-05T03:23:30;2.10;;;1.40;;
67737;SDS011;54534;43.612;1.572;2023-04-05T03:28:22;1.53;;;1.40;;
67737;SDS011;54534;43.612;1.572;2023-04-05T03:30:47;1.20;;;1.10;;
67737;SDS011;54534;43.612;1.572;2023-04-05T03:33:13;1.90;;;1.50;;
67737;SDS011;54534;43.612;1.572;2023-04-05T03:35:38;1.70;;;1.23;;
67737;SDS011;54534;43.612;1.572;2023-04-05T03:38:03;2.37;;;1.30;;
67737;SDS011;54534;43.612;1.572;2023-04-05T03:40:29;1.60;;;1.50;;
67737;SDS011;54534;43.612;1.572;2023-04-05T03:42:55;2.30;;;1.30;;
67737;SDS011;54534;43.612;1.572;2023-04-05T03:45:20;2.23;;;1.57;;
67737;SDS011;54534;43.612;1.572;2023-04-05T03:47:46;1.23;;;1.10;;
67737;SDS011;54534;43.612;1.572;2023-04-05T03:50:11;1.47;;;1.37;;
67737;SDS011;54534;43.612;1.572;2023-04-05T03:52:37;1.30;;;1.20;;
67737;SDS011;54534;43.612;1.572;2023-04-05T03:55:02;2.07;;;1.43;;
67737;SDS011;54534;43.612;1.572;2023-04-05T03:57:28;1.97;;;1.23;;
67737;SDS011;54534;43.612;1.572;2023-04-05T03:59:54;1.30;;;1.20;;
67737;SDS011;54534;43.612;1.572;2023-04-05T04:02:19;1.80;;;1.40;;
67737;SDS011;54534;43.612;1.572;2023-04-05T04:04:45;1.40;;;1.13;;
67737;SDS011;54534;43.612;1.572;2023-04-05T04:07:11;1.40;;;1.30;;
67737;SDS011;54534;43.612;1.572;2023-04-05T04:09:37;3.30;;;1.37;;
67737;SDS011;54534;43.612;1.572;2023-04-05T04:12:02;1.63;;;1.53;;
67737;SDS011;54534;43.612;1.572;2023-04-05T04:14:28;1.33;;;1.20;;
67737;SDS011;54534;43.612;1.572;2023-04-05T04:16:53;2.27;;;1.40;;
67737;SDS011;54534;43.612;1.572;2023-04-05T04:19:19;1.30;;;1.20;;
67737;SDS011;54534;43.612;1.572;2023-04-05T04:21:44;1.47;;;1.33;;
67737;SDS011;54534;43.612;1.572;2023-04-05T04:24:15;1.40;;;1.30;;
67737;SDS011;54534;43.612;1.572;2023-04-05T04:26:45;1.53;;;1.43;;
67737;SDS011;54534;43.612;1.572;2023-04-05T04:29:12;1.20;;;1.10;;
67737;SDS011;54534;43.612;1.572;2023-04-05T04:31:40;1.47;;;1.37;;
67737;SDS011;54534;43.612;1.572;2023-04-05T04:34:09;1.30;;;1.20;;
67737;SDS011;54534;43.612;1.572;2023-04-05T04:36:35;1.50;;;1.30;;
67737;SDS011;54534;43.612;1.572;2023-04-05T04:39:03;1.73;;;1.10;;
67737;SDS011;54534;43.612;1.572;2023-04-05T04:41:31;2.00;;;1.40;;
67737;SDS011;54534;43.612;1.572;2023-04-05T04:43:58;1.40;;;1.30;;
67737;SDS011;54534;43.612;1.572;2023-04-05T04:46:27;2.20;;;1.30;;
67737;SDS011;54534;43.612;1.572;2023-04-05T04:48:59;1.50;;;1.40;;
67737;SDS011;54534;43.612;1.572;2023-04-05T04:51:30;1.57;;;1.47;;
67737;SDS011;54534;43.612;1.572;2023-04-05T04:53:56;2.03;;;1.60;;
67737;SDS011;54534;43.612;1.572;2023-04-05T04:56:21;1.37;;;1.27;;
67737;SDS011;54534;43.612;1.572;2023-04-05T04:58:46;3.43;;;1.50;;
67737;SDS011;54534;43.612;1.572;2023-04-05T05:01:12;2.20;;;1.30;;
67737;SDS011;54534;43.612;1.572;2023-04-05T05:03:37;1.10;;;1.10;;
67737;SDS011;54534;43.612;1.572;2023-04-05T05:06:03;1.97;;;1.57;;
67737;SDS011;54534;43.612;1.572;2023-04-05T05:08:28;2.53;;;1.50;;
67737;SDS011;54534;43.612;1.572;2023-04-05T05:10:54;1.13;;;1.03;;
67737;SDS011;54534;43.612;1.572;2023-04-05T05:13:20;1.53;;;1.17;;
67737;SDS011;54534;43.612;1.572;2023-04-05T05:15:46;1.70;;;1.20;;
67737;SDS011;54534;43.612;1.572;2023-04-05T05:18:12;1.70;;;1.50;;
67737;SDS011;54534;43.612;1.572;2023-04-05T05:20:37;1.40;;;1.30;;
67737;SDS011;54534;43.612;1.572;2023-04-05T05:23:03;1.50;;;1.20;;
67737;SDS011;54534;43.612;1.572;2023-04-05T05:25:29;4.13;;;1.20;;
67737;SDS011;54534;43.612;1.572;2023-04-05T05:27:55;17.90;;;2.03;;
67737;SDS011;54534;43.612;1.572;2023-04-05T05:30:20;41.87;;;2.93;;
67737;SDS011;54534;43.612;1.572;2023-04-05T05:32:46;16.67;;;1.57;;
67737;SDS011;54534;43.612;1.572;2023-04-05T05:35:12;39.90;;;2.03;;
67737;SDS011;54534;43.612;1.572;2023-04-05T05:37:37;7.57;;;1.90;;
67737;SDS011;54534;43.612;1.572;2023-04-05T05:40:03;12.23;;;1.60;;
67737;SDS011;54534;43.612;1.572;2023-04-05T05:42:29;7.00;;;1.43;;
67737;SDS011;54534;43.612;1.572;2023-04-05T05:44:56;2.13;;;1.50;;
67737;SDS011;54534;43.612;1.572;2023-04-05T05:47:24;5.03;;;1.40;;
67737;SDS011;54534;43.612;1.572;2023-04-05T05:49:49;4.83;;;1.40;;
67737;SDS011;54534;43.612;1.572;2023-04-05T05:52:15;2.97;;;1.70;;
67737;SDS011;54534;43.612;1.572;2023-04-05T05:54:40;6.17;;;1.60;;
67737;SDS011;54534;43.612;1.572;2023-04-05T05:57:06;1.70;;;1.50;;
67737;SDS011;54534;43.612;1.572;2023-04-05T05:59:31;4.70;;;1.50;;
67737;SDS011;54534;43.612;1.572;2023-04-05T06:01:56;2.87;;;1.30;;
67737;SDS011;54534;43.612;1.572;2023-04-05T06:04:22;3.73;;;1.93;;
67737;SDS011;54534;43.612;1.572;2023-04-05T06:06:47;1.47;;;1.37;;
67737;SDS011;54534;43.612;1.572;2023-04-05T06:09:13;15.13;;;1.87;;
67737;SDS011;54534;43.612;1.572;2023-04-05T06:11:41;5.37;;;1.50;;
67737;SDS011;54534;43.612;1.572;2023-04-05T06:14:07;5.60;;;1.50;;
67737;SDS011;54534;43.612;1.572;2023-04-05T06:16:32;18.77;;;2.13;;
67737;SDS011;54534;43.612;1.572;2023-04-05T06:18:59;3.93;;;1.87;;
67737;SDS011;54534;43.612;1.572;2023-04-05T06:21:25;6.03;;;1.73;;
67737;SDS011;54534;43.612;1.572;2023-04-05T06:23:51;6.73;;;1.87;;
67737;SDS011;54534;43.612;1.572;2023-04-05T06:26:20;3.43;;;1.70;;
67737;SDS011;54534;43.612;1.572;2023-04-05T06:28:50;9.87;;;2.40;;
67737;SDS011;54534;43.612;1.572;2023-04-05T06:31:18;10.43;;;2.20;;
67737;SDS011;54534;43.612;1.572;2023-04-05T06:33:57;4.20;;;2.45;;
67737;SDS011;54534;43.612;1.572;2023-04-05T06:36:22;6.77;;;1.73;;
67737;SDS011;54534;43.612;1.572;2023-04-05T06:38:49;1.87;;;1.70;;
67737;SDS011;54534;43.612;1.572;2023-04-05T06:41:15;4.10;;;1.80;;
67737;SDS011;54534;43.612;1.572;2023-04-05T06:43:40;9.57;;;2.00;;
67737;SDS011;54534;43.612;1.572;2023-04-05T06:46:06;2.93;;;1.60;;
67737;SDS011;54534;43.612;1.572;2023-04-05T06:48:33;9.63;;;2.13;;
67737;SDS011;54534;43.612;1.572;2023-04-05T06:50:59;5.47;;;1.90;;
67737;SDS011;54534;43.612;1.572;2023-04-05T06:53:26;4.87;;;2.00;;
67737;SDS011;54534;43.612;1.572;2023-04-05T06:55:55;6.60;;;2.07;;
67737;SDS011;54534;43.612;1.572;2023-04-05T06:58:22;3.78;;;1.77;;
67737;SDS011;54534;43.612;1.572;2023-04-05T07:00:48;3.47;;;1.93;;
67737;SDS011;54534;43.612;1.572;2023-04-05T07:03:14;7.97;;;1.77;;
67737;SDS011;54534;43.612;1.572;2023-04-05T07:05:40;6.90;;;2.00;;
67737;SDS011;54534;43.612;1.572;2023-04-05T07:08:06;6.40;;;1.90;;
67737;SDS011;54534;43.612;1.572;2023-04-05T07:10:31;3.30;;;2.20;;
67737;SDS011;54534;43.612;1.572;2023-04-05T07:12:57;6.50;;;2.40;;
67737;SDS011;54534;43.612;1.572;2023-04-05T07:15:22;12.07;;;2.50;;
67737;SDS011;54534;43.612;1.572;2023-04-05T07:17:47;4.87;;;2.40;;
67737;SDS011;54534;43.612;1.572;2023-04-05T07:20:13;3.37;;;1.90;;
67737;SDS011;54534;43.612;1.572;2023-04-05T07:22:40;5.50;;;2.10;;
67737;SDS011;54534;43.612;1.572;2023-04-05T07:25:05;5.33;;;2.30;;
67737;SDS011;54534;43.612;1.572;2023-04-05T07:27:33;5.93;;;2.27;;
67737;SDS011;54534;43.612;1.572;2023-04-05T07:29:59;2.63;;;1.50;;
67737;SDS011;54534;43.612;1.572;2023-04-05T07:32:24;5.77;;;1.80;;
67737;SDS011;54534;43.612;1.572;2023-04-05T07:34:50;4.70;;;1.77;;
67737;SDS011;54534;43.612;1.572;2023-04-05T07:37:15;2.47;;;1.50;;
67737;SDS011;54534;43.612;1.572;2023-04-05T07:39:41;6.90;;;1.77;;
67737;SDS011;54534;43.612;1.572;2023-04-05T07:42:06;2.37;;;1.60;;
67737;SDS011;54534;43.612;1.572;2023-04-05T07:44:32;3.07;;;1.70;;
67737;SDS011;54534;43.612;1.572;2023-04-05T07:46:57;2.83;;;1.63;;
67737;SDS011;54534;43.612;1.572;2023-04-05T07:49:23;3.23;;;2.00;;
67737;SDS011;54534;43.612;1.572;2023-04-05T07:51:55;5.15;;;1.92;;
67737;SDS011;54534;43.612;1.572;2023-04-05T07:54:22;3.43;;;1.83;;
67737;SDS011;54534;43.612;1.572;2023-04-05T07:56:48;2.67;;;1.40;;
67737;SDS011;54534;43.612;1.572;2023-04-05T07:59:14;2.73;;;1.83;;
67737;SDS011;54534;43.612;1.572;2023-04-05T08:01:39;5.07;;;2.20;;
67737;SDS011;54534;43.612;1.572;2023-04-05T08:04:05;2.30;;;1.80;;
67737;SDS011;54534;43.612;1.572;2023-04-05T08:06:30;5.97;;;1.60;;
67737;SDS011;54534;43.612;1.572;2023-04-05T08:08:56;3.27;;;1.43;;
67737;SDS011;54534;43.612;1.572;2023-04-05T08:11:21;3.43;;;1.47;;
67737;SDS011;54534;43.612;1.572;2023-04-05T08:13:47;2.27;;;1.70;;
67737;SDS011;54534;43.612;1.572;2023-04-05T08:16:12;2.40;;;1.33;;
67737;SDS011;54534;43.612;1.572;2023-04-05T08:18:37;3.47;;;2.03;;
67737;SDS011;54534;43.612;1.572;2023-04-05T08:21:03;2.53;;;2.00;;
67737;SDS011;54534;43.612;1.572;2023-04-05T08:23:28;4.37;;;1.73;;
67737;SDS011;54534;43.612;1.572;2023-04-05T08:25:54;1.97;;;1.70;;
67737;SDS011;54534;43.612;1.572;2023-04-05T08:28:20;2.10;;;1.40;;
67737;SDS011;54534;43.612;1.572;2023-04-05T08:30:45;3.73;;;1.47;;
67737;SDS011;54534;43.612;1.572;2023-04-05T08:33:11;2.27;;;1.43;;
67737;SDS011;54534;43.612;1.572;2023-04-05T08:35:37;2.80;;;1.30;;
67737;SDS011;54534;43.612;1.572;2023-04-05T08:38:04;4.60;;;1.50;;
67737;SDS011;54534;43.612;1.572;2023-04-05T08:45:59;5.67;;;1.73;;
67737;SDS011;54534;43.612;1.572;2023-04-05T08:48:25;2.70;;;1.53;;
67737;SDS011;54534;43.612;1.572;2023-04-05T09:00:31;6.00;;;1.53;;
67737;SDS011;54534;43.612;1.572;2023-04-05T09:02:57;3.30;;;1.30;;
67737;SDS011;54534;43.612;1.572;2023-04-05T09:05:26;5.18;;;1.50;;
67737;SDS011;54534;43.612;1.572;2023-04-05T09:07:56;2.63;;;1.10;;
67737;SDS011;54534;43.612;1.572;2023-04-05T09:10:22;2.97;;;1.40;;
67737;SDS011;54534;43.612;1.572;2023-04-05T09:12:50;3.57;;;1.20;;
67737;SDS011;54534;43.612;1.572;2023-04-05T09:15:17;2.67;;;1.70;;
67737;SDS011;54534;43.612;1.572;2023-04-05T09:17:45;7.20;;;1.40;;
67737;SDS011;54534;43.612;1.572;2023-04-05T09:20:11;3.30;;;1.43;;
67737;SDS011;54534;43.612;1.572;2023-04-05T09:22:44;3.87;;;1.40;;
67737;SDS011;54534;43.612;1.572;2023-04-05T09:25:11;4.80;;;1.60;;
67737;SDS011;54534;43.612;1.572;2023-04-05T09:27:56;4.87;;;1.60;;
67737;SDS011;54534;43.612;1.572;2023-04-05T09:30:23;3.67;;;1.53;;
67737;SDS011;54534;43.612;1.572;2023-04-05T09:32:50;1.97;;;1.33;;
67737;SDS011;54534;43.612;1.572;2023-04-05T09:35:27;2.50;;;1.27;;
67737;SDS011;54534;43.612;1.572;2023-04-05T09:37:56;3.60;;;1.40;;
67737;SDS011;54534;43.612;1.572;2023-04-05T09:40:22;3.33;;;1.37;;
67737;SDS011;54534;43.612;1.572;2023-04-05T09:42:48;2.20;;;1.33;;
67737;SDS011;54534;43.612;1.572;2023-04-05T09:45:14;2.80;;;1.50;;
67737;SDS011;54534;43.612;1.572;2023-04-05T09:47:42;2.37;;;1.50;;
67737;SDS011;54534;43.612;1.572;2023-04-05T09:52:41;1.87;;;1.30;;
67737;SDS011;54534;43.612;1.572;2023-04-05T09:55:07;1.83;;;1.30;;
67737;SDS011;54534;43.612;1.572;2023-04-05T09:57:34;1.43;;;1.10;;
67737;SDS011;54534;43.612;1.572;2023-04-05T10:00:01;1.83;;;1.00;;
67737;SDS011;54534;43.612;1.572;2023-04-05T10:02:36;3.30;;;1.10;;
67737;SDS011;54534;43.612;1.572;2023-04-05T10:05:06;1.60;;;1.20;;
67737;SDS011;54534;43.612;1.572;2023-04-05T10:07:36;2.43;;;1.57;;
67737;SDS011;54534;43.612;1.572;2023-04-05T10:10:02;1.47;;;1.30;;
67737;SDS011;54534;43.612;1.572;2023-04-05T10:12:28;1.37;;;1.00;;
67737;SDS011;54534;43.612;1.572;2023-04-05T10:14:56;2.03;;;1.10;;
67737;SDS011;54534;43.612;1.572;2023-04-05T10:17:23;3.37;;;1.40;;
67737;SDS011;54534;43.612;1.572;2023-04-05T10:28:33;1.90;;;1.10;;
67737;SDS011;54534;43.612;1.572;2023-04-05T10:34:03;4.43;;;1.20;;
67737;SDS011;54534;43.612;1.572;2023-04-05T10:41:37;6.50;;;1.83;;
67737;SDS011;54534;43.612;1.572;2023-04-05T10:44:06;9.27;;;1.47;;
67737;SDS011;54534;43.612;1.572;2023-04-05T10:46:34;4.77;;;1.50;;
67737;SDS011;54534;43.612;1.572;2023-04-05T10:54:16;4.93;;;1.40;;
67737;SDS011;54534;43.612;1.572;2023-04-05T10:56:44;4.97;;;1.20;;
67737;SDS011;54534;43.612;1.572;2023-04-05T10:59:10;5.20;;;1.50;;
67737;SDS011;54534;43.612;1.572;2023-04-05T11:01:36;3.97;;;1.93;;
67737;SDS011;54534;43.612;1.572;2023-04-05T11:04:12;1.83;;;1.50;;
67737;SDS011;54534;43.612;1.572;2023-04-05T11:06:39;10.47;;;1.90;;
67737;SDS011;54534;43.612;1.572;2023-04-05T11:11:39;8.57;;;1.70;;
67737;SDS011;54534;43.612;1.572;2023-04-05T11:14:18;13.95;;;1.80;;
67737;SDS011;54534;43.612;1.572;2023-04-05T11:16:51;8.63;;;1.63;;
67737;SDS011;54534;43.612;1.572;2023-04-05T11:19:20;6.85;;;1.38;;
67737;SDS011;54534;43.612;1.572;2023-04-05T11:22:11;4.33;;;1.43;;
67737;SDS011;54534;43.612;1.572;2023-04-05T11:27:27;9.00;;;1.87;;
67737;SDS011;54534;43.612;1.572;2023-04-05T11:29:54;4.30;;;1.30;;
67737;SDS011;54534;43.612;1.572;2023-04-05T11:32:21;3.40;;;1.43;;
67737;SDS011;54534;43.612;1.572;2023-04-05T11:34:56;1.80;;;1.47;;
67737;SDS011;54534;43.612;1.572;2023-04-05T11:40:25;5.03;;;1.67;;
67737;SDS011;54534;43.612;1.572;2023-04-05T11:42:58;4.13;;;1.20;;
67737;SDS011;54534;43.612;1.572;2023-04-05T11:45:25;2.07;;;1.43;;
67737;SDS011;54534;43.612;1.572;2023-04-05T11:47:51;2.00;;;1.33;;
67737;SDS011;54534;43.612;1.572;2023-04-05T11:50:16;2.87;;;1.40;;
67737;SDS011;54534;43.612;1.572;2023-04-05T11:52:42;2.47;;;1.10;;
67737;SDS011;54534;43.612;1.572;2023-04-05T11:55:07;4.63;;;1.57;;
67737;SDS011;54534;43.612;1.572;2023-04-05T11:57:34;3.20;;;1.27;;
67737;SDS011;54534;43.612;1.572;2023-04-05T12:00:00;2.23;;;1.00;;
67737;SDS011;54534;43.612;1.572;2023-04-05T12:02:26;6.20;;;1.30;;
67737;SDS011;54534;43.612;1.572;2023-04-05T12:04:55;5.40;;;1.30;;
67737;SDS011;54534;43.612;1.572;2023-04-05T12:10:02;1.43;;;1.07;;
67737;SDS011;54534;43.612;1.572;2023-04-05T12:12:42;3.40;;;1.30;;
67737;SDS011;54534;43.612;1.572;2023-04-05T12:15:09;1.20;;;1.10;;
67737;SDS011;54534;43.612;1.572;2023-04-05T12:20:08;1.20;;;1.05;;
67737;SDS011;54534;43.612;1.572;2023-04-05T12:22:38;4.50;;;1.57;;
67737;SDS011;54534;43.612;1.572;2023-04-05T12:25:06;1.90;;;1.03;;
67737;SDS011;54534;43.612;1.572;2023-04-05T12:27:32;1.60;;;1.20;;
67737;SDS011;54534;43.612;1.572;2023-04-05T12:30:08;6.80;;;1.27;;
67737;SDS011;54534;43.612;1.572;2023-04-05T12:35:16;4.83;;;1.17;;
67737;SDS011;54534;43.612;1.572;2023-04-05T12:37:43;2.90;;;1.60;;
67737;SDS011;54534;43.612;1.572;2023-04-05T12:40:09;1.23;;;0.93;;
67737;SDS011;54534;43.612;1.572;2023-04-05T12:42:35;2.23;;;1.20;;
67737;SDS011;54534;43.612;1.572;2023-04-05T12:45:21;2.07;;;1.10;;
67737;SDS011;54534;43.612;1.572;2023-04-05T12:47:59;1.43;;;1.03;;
67737;SDS011;54534;43.612;1.572;2023-04-05T12:50:26;5.40;;;1.10;;
67737;SDS011;54534;43.612;1.572;2023-04-05T12:53:00;2.03;;;1.00;;
67737;SDS011;54534;43.612;1.572;2023-04-05T12:55:29;2.63;;;1.23;;
67737;SDS011;54534;43.612;1.572;2023-04-05T12:57:56;2.73;;;1.00;;
67737;SDS011;54534;43.612;1.572;2023-04-05T13:00:24;2.30;;;1.43;;
67737;SDS011;54534;43.612;1.572;2023-04-05T13:02:52;2.80;;;1.00;;
67737;SDS011;54534;43.612;1.572;2023-04-05T13:05:25;1.10;;;1.00;;
67737;SDS011;54534;43.612;1.572;2023-04-05T13:07:52;1.17;;;1.07;;
67737;SDS011;54534;43.612;1.572;2023-04-05T13:10:21;2.07;;;1.20;;
67737;SDS011;54534;43.612;1.572;2023-04-05T13:12:47;1.57;;;1.10;;
67737;SDS011;54534;43.612;1.572;2023-04-05T13:15:13;1.43;;;1.13;;
67737;SDS011;54534;43.612;1.572;2023-04-05T13:17:43;4.53;;;1.10;;
67737;SDS011;54534;43.612;1.572;2023-04-05T13:20:13;2.20;;;1.00;;
67737;SDS011;54534;43.612;1.572;2023-04-05T13:22:39;1.00;;;0.90;;
67737;SDS011;54534;43.612;1.572;2023-04-05T13:25:05;1.23;;;1.00;;
67737;SDS011;54534;43.612;1.572;2023-04-05T13:27:31;2.10;;;1.37;;
67737;SDS011;54534;43.612;1.572;2023-04-05T13:29:56;1.23;;;1.10;;
67737;SDS011;54534;43.612;1.572;2023-04-05T13:32:22;1.97;;;0.90;;
67737;SDS011;54534;43.612;1.572;2023-04-05T13:34:47;1.30;;;0.80;;
67737;SDS011;54534;43.612;1.572;2023-04-05T13:37:13;1.53;;;1.30;;
67737;SDS011;54534;43.612;1.572;2023-04-05T13:39:39;2.67;;;1.00;;
67737;SDS011;54534;43.612;1.572;2023-04-05T13:42:04;0.97;;;0.97;;
67737;SDS011;54534;43.612;1.572;2023-04-05T13:44:30;2.33;;;1.00;;
67737;SDS011;54534;43.612;1.572;2023-04-05T13:46:55;2.40;;;1.30;;
67737;SDS011;54534;43.612;1.572;2023-04-05T13:49:21;2.10;;;1.30;;
67737;SDS011;54534;43.612;1.572;2023-04-05T13:51:46;1.93;;;0.80;;
67737;SDS011;54534;43.612;1.572;2023-04-05T13:54:11;1.43;;;0.90;;
67737;SDS011;54534;43.612;1.572;2023-04-05T13:56:37;1.23;;;1.00;;
67737;SDS011;54534;43.612;1.572;2023-04-05T13:59:02;1.07;;;1.00;;
67737;SDS011;54534;43.612;1.572;2023-04-05T14:01:28;2.80;;;1.50;;
67737;SDS011;54534;43.612;1.572;2023-04-05T14:03:53;1.43;;;1.17;;
67737;SDS011;54534;43.612;1.572;2023-04-05T14:06:19;2.90;;;1.07;;
67737;SDS011;54534;43.612;1.572;2023-04-05T14:08:44;2.00;;;1.00;;
67737;SDS011;54534;43.612;1.572;2023-04-05T14:11:10;1.20;;;1.10;;
67737;SDS011;54534;43.612;1.572;2023-04-05T14:13:35;1.80;;;0.90;;
67737;SDS011;54534;43.612;1.572;2023-04-05T14:16:01;0.80;;;0.80;;
67737;SDS011;54534;43.612;1.572;2023-04-05T14:18:26;1.57;;;1.20;;
67737;SDS011;54534;43.612;1.572;2023-04-05T14:20:52;1.20;;;1.07;;
67737;SDS011;54534;43.612;1.572;2023-04-05T14:23:17;2.73;;;0.93;;
67737;SDS011;54534;43.612;1.572;2023-04-05T14:25:43;2.43;;;0.90;;
67737;SDS011;54534;43.612;1.572;2023-04-05T14:28:08;1.70;;;0.90;;
67737;SDS011;54534;43.612;1.572;2023-04-05T14:30:34;3.40;;;0.70;;
67737;SDS011;54534;43.612;1.572;2023-04-05T14:33:00;5.07;;;1.00;;
67737;SDS011;54534;43.612;1.572;2023-04-05T14:35:25;1.87;;;0.90;;
67737;SDS011;54534;43.612;1.572;2023-04-05T14:37:51;1.20;;;1.10;;
67737;SDS011;54534;43.612;1.572;2023-04-05T14:40:16;0.70;;;0.70;;
67737;SDS011;54534;43.612;1.572;2023-04-05T14:42:42;2.23;;;0.70;;
67737;SDS011;54534;43.612;1.572;2023-04-05T14:45:07;1.37;;;0.93;;
67737;SDS011;54534;43.612;1.572;2023-04-05T14:47:33;5.17;;;1.13;;
67737;SDS011;54534;43.612;1.572;2023-04-05T14:49:59;1.77;;;1.00;;
67737;SDS011;54534;43.612;1.572;2023-04-05T14:52:24;3.53;;;1.00;;
67737;SDS011;54534;43.612;1.572;2023-04-05T14:54:50;1.23;;;1.13;;
67737;SDS011;54534;43.612;1.572;2023-04-05T14:57:15;3.17;;;0.97;;
67737;SDS011;54534;43.612;1.572;2023-04-05T14:59:41;3.53;;;1.00;;
67737;SDS011;54534;43.612;1.572;2023-04-05T15:02:07;2.13;;;0.87;;
67737;SDS011;54534;43.612;1.572;2023-04-05T15:04:33;0.80;;;0.80;;
67737;SDS011;54534;43.612;1.572;2023-04-05T15:06:58;0.90;;;0.80;;
67737;SDS011;54534;43.612;1.572;2023-04-05T15:09:24;0.80;;;0.80;;
67737;SDS011;54534;43.612;1.572;2023-04-05T15:11:49;2.87;;;0.80;;
67737;SDS011;54534;43.612;1.572;2023-04-05T15:14:15;1.60;;;1.00;;
67737;SDS011;54534;43.612;1.572;2023-04-05T15:16:40;2.53;;;1.17;;
67737;SDS011;54534;43.612;1.572;2023-04-05T15:19:07;2.93;;;1.03;;
67737;SDS011;54534;43.612;1.572;2023-04-05T15:21:33;1.70;;;1.20;;
67737;SDS011;54534;43.612;1.572;2023-04-05T15:23:59;2.43;;;1.20;;
67737;SDS011;54534;43.612;1.572;2023-04-05T15:26:26;1.57;;;0.87;;
67737;SDS011;54534;43.612;1.572;2023-04-05T15:28:51;2.60;;;0.93;;
67737;SDS011;54534;43.612;1.572;2023-04-05T15:31:17;1.53;;;0.90;;
67737;SDS011;54534;43.612;1.572;2023-04-05T15:33:42;1.03;;;0.93;;
67737;SDS011;54534;43.612;1.572;2023-04-05T15:36:08;0.80;;;0.80;;
67737;SDS011;54534;43.612;1.572;2023-04-05T15:38:33;0.87;;;0.87;;
67737;SDS011;54534;43.612;1.572;2023-04-05T15:40:59;3.10;;;1.00;;
67737;SDS011;54534;43.612;1.572;2023-04-05T15:43:24;6.13;;;1.17;;
67737;SDS011;54534;43.612;1.572;2023-04-05T15:45:50;0.90;;;0.70;;
67737;SDS011;54534;43.612;1.572;2023-04-05T15:48:16;1.50;;;1.40;;
67737;SDS011;54534;43.612;1.572;2023-04-05T15:50:41;1.43;;;1.10;;
67737;SDS011;54534;43.612;1.572;2023-04-05T15:53:07;1.90;;;1.00;;
67737;SDS011;54534;43.612;1.572;2023-04-05T15:55:33;1.07;;;1.00;;
67737;SDS011;54534;43.612;1.572;2023-04-05T15:57:58;3.10;;;1.10;;